createdAt,value
2018-07-31T00:01:22.747Z,4.40
2018-07-31T00:03:50.579Z,4.00
2018-07-31T00:06:21.808Z,4.23
2018-07-31T00:08:50.019Z,4.80
2018-07-31T00:11:17.841Z,4.27
2018-07-31T00:13:45.433Z,4.17
2018-07-31T00:16:13.533Z,4.37
2018-07-31T00:18:41.152Z,4.37
2018-07-31T00:21:08.908Z,4.20
2018-07-31T00:23:37.316Z,3.83
2018-07-31T00:26:06.376Z,4.07
2018-07-31T00:28:34.036Z,5.13
2018-07-31T00:31:02.189Z,4.10
2018-07-31T00:33:29.974Z,3.70
2018-07-31T00:35:57.745Z,3.73
2018-07-31T00:38:25.506Z,4.50
2018-07-31T00:40:53.908Z,4.23
2018-07-31T00:43:21.601Z,4.10
2018-07-31T00:45:49.426Z,4.13
2018-07-31T00:48:17.264Z,3.90
2018-07-31T00:50:46.048Z,4.07
2018-07-31T00:53:13.862Z,4.40
2018-07-31T00:55:41.541Z,4.00
2018-07-31T00:58:09.288Z,3.97
2018-07-31T01:00:37.064Z,4.27
2018-07-31T01:03:04.941Z,4.40
2018-07-31T01:05:33.833Z,4.40
2018-07-31T01:08:01.570Z,4.43
2018-07-31T01:10:29.298Z,3.80
2018-07-31T01:12:57.373Z,4.37
2018-07-31T01:15:25.077Z,3.97
2018-07-31T01:17:52.889Z,4.50
2018-07-31T01:23:05.396Z,4.27
2018-07-31T01:25:33.069Z,3.93
2018-07-31T01:28:00.793Z,3.93
2018-07-31T01:30:28.454Z,3.50
2018-07-31T01:32:56.219Z,4.27
2018-07-31T01:35:24.191Z,4.57
2018-07-31T01:37:52.264Z,4.63
2018-07-31T01:40:19.926Z,5.47
2018-07-31T01:42:47.678Z,5.00
2018-07-31T01:45:15.430Z,4.20
2018-07-31T01:47:43.998Z,4.30
2018-07-31T01:50:11.819Z,4.27
2018-07-31T01:52:39.421Z,4.10
2018-07-31T01:55:06.965Z,4.00
2018-07-31T01:57:34.621Z,3.87
2018-07-31T02:00:02.436Z,3.77
2018-07-31T02:02:30.100Z,4.20
2018-07-31T02:04:57.854Z,4.17
2018-07-31T02:07:25.783Z,4.43
2018-07-31T02:09:53.511Z,4.30
2018-07-31T02:12:21.263Z,5.10
2018-07-31T02:14:49.096Z,5.07
2018-07-31T02:17:16.854Z,5.07
2018-07-31T02:19:44.762Z,4.80
2018-07-31T02:24:47.069Z,4.37
2018-07-31T02:27:15.046Z,4.00
2018-07-31T02:29:48.482Z,4.90
2018-07-31T02:32:16.342Z,4.27
2018-07-31T02:34:44.108Z,5.40
2018-07-31T02:37:11.835Z,4.27
2018-07-31T02:39:39.841Z,4.00
2018-07-31T02:42:07.614Z,5.27
2018-07-31T02:44:35.375Z,4.50
2018-07-31T02:47:03.153Z,4.53
2018-07-31T02:49:30.846Z,5.40
2018-07-31T02:51:58.561Z,4.93
2018-07-31T02:54:26.148Z,5.30
2018-07-31T02:56:53.946Z,4.57
2018-07-31T02:59:21.628Z,4.97
2018-07-31T03:01:49.498Z,4.80
2018-07-31T03:04:17.114Z,4.20
2018-07-31T03:06:44.804Z,4.40
2018-07-31T03:09:12.962Z,4.73
2018-07-31T03:11:40.787Z,4.40
2018-07-31T03:14:08.509Z,5.03
2018-07-31T03:16:36.349Z,4.43
2018-07-31T03:19:04.154Z,3.80
2018-07-31T03:21:31.923Z,4.90
2018-07-31T03:23:59.768Z,4.70
2018-07-31T03:26:27.396Z,5.10
2018-07-31T03:28:55.037Z,5.30
2018-07-31T03:31:23.629Z,5.27
2018-07-31T03:33:51.472Z,4.80
2018-07-31T03:36:19.438Z,5.20
2018-07-31T03:38:54.248Z,4.70
2018-07-31T03:41:23.822Z,4.73
2018-07-31T03:43:51.402Z,4.50
2018-07-31T03:46:19.293Z,5.03
2018-07-31T03:48:47.030Z,5.10
2018-07-31T03:51:14.901Z,4.93
2018-07-31T03:53:42.659Z,5.83
2018-07-31T03:56:10.875Z,5.00
2018-07-31T03:58:38.572Z,5.90
2018-07-31T04:01:06.434Z,4.30
2018-07-31T04:03:34.201Z,4.37
2018-07-31T04:06:01.822Z,4.80
2018-07-31T04:08:36.315Z,4.70
2018-07-31T04:11:04.371Z,4.83
2018-07-31T04:13:32.232Z,4.47
2018-07-31T04:15:59.820Z,4.93
2018-07-31T04:18:27.497Z,5.03
2018-07-31T04:20:55.147Z,4.90
2018-07-31T04:23:23.110Z,4.97
2018-07-31T04:25:50.782Z,5.30
2018-07-31T04:28:18.541Z,5.07
2018-07-31T04:30:46.235Z,5.00
2018-07-31T04:33:13.941Z,5.90
2018-07-31T04:35:41.595Z,5.33
2018-07-31T04:38:09.269Z,5.83
2018-07-31T04:40:37.003Z,5.33
2018-07-31T04:43:04.715Z,4.73
2018-07-31T04:45:32.555Z,5.60
2018-07-31T04:48:00.370Z,5.27
2018-07-31T04:50:27.954Z,5.07
2018-07-31T04:52:55.669Z,4.67
2018-07-31T04:55:23.208Z,5.40
2018-07-31T04:57:50.918Z,5.90
2018-07-31T05:00:18.628Z,4.57
2018-07-31T05:02:46.230Z,5.37
2018-07-31T05:05:13.812Z,5.00
2018-07-31T05:07:41.382Z,5.00
2018-07-31T05:10:12.409Z,6.03
2018-07-31T05:12:41.277Z,5.07
2018-07-31T05:15:08.965Z,4.50
2018-07-31T05:17:37.755Z,4.50
2018-07-31T05:20:06.140Z,5.03
2018-07-31T05:22:33.686Z,5.43
2018-07-31T05:25:01.461Z,4.60
2018-07-31T05:27:29.076Z,5.20
2018-07-31T05:29:56.737Z,5.23
2018-07-31T05:32:24.483Z,5.40
2018-07-31T05:34:52.314Z,4.50
2018-07-31T05:37:19.929Z,5.07
2018-07-31T05:39:47.602Z,4.57
2018-07-31T05:42:16.924Z,5.37
2018-07-31T05:44:45.038Z,4.73
2018-07-31T05:47:12.744Z,5.10
2018-07-31T05:49:40.517Z,4.67
2018-07-31T05:52:08.189Z,4.70
2018-07-31T05:54:36.764Z,4.80
2018-07-31T05:57:04.669Z,5.30
2018-07-31T05:59:33.106Z,4.40
2018-07-31T06:02:00.883Z,5.17
2018-07-31T06:04:28.806Z,5.00
2018-07-31T06:06:57.073Z,4.80
2018-07-31T06:09:29.771Z,4.80
2018-07-31T06:11:57.856Z,4.67
2018-07-31T06:14:26.058Z,5.13
2018-07-31T06:16:53.863Z,4.60
2018-07-31T06:19:21.680Z,5.37
2018-07-31T06:21:49.934Z,4.47
2018-07-31T06:24:17.658Z,4.50
2018-07-31T06:26:45.462Z,5.10
2018-07-31T06:29:14.084Z,4.87
2018-07-31T06:31:41.889Z,4.83
2018-07-31T06:34:09.578Z,4.40
2018-07-31T06:36:37.239Z,4.73
2018-07-31T06:39:09.769Z,4.10
2018-07-31T06:41:37.389Z,5.10
2018-07-31T06:44:05.515Z,5.07
2018-07-31T06:46:33.423Z,4.67
2018-07-31T06:49:01.237Z,5.47
2018-07-31T06:51:29.131Z,4.23
2018-07-31T06:53:56.846Z,5.10
2018-07-31T06:56:24.542Z,4.70
2018-07-31T06:58:52.940Z,4.30
2018-07-31T07:01:20.771Z,4.30
2018-07-31T07:03:48.425Z,4.93
2018-07-31T07:06:16.037Z,4.97
2018-07-31T07:08:43.966Z,4.40
2018-07-31T07:11:14.714Z,5.47
2018-07-31T07:13:42.752Z,4.87
2018-07-31T07:16:10.519Z,4.57
2018-07-31T07:18:38.218Z,4.87
2018-07-31T07:21:06.846Z,5.43
2018-07-31T07:23:34.538Z,5.23
2018-07-31T07:26:02.396Z,4.57
2018-07-31T07:28:30.111Z,5.10
2018-07-31T07:30:58.200Z,4.30
2018-07-31T07:33:25.968Z,4.70
2018-07-31T07:35:53.703Z,5.57
2018-07-31T07:38:25.778Z,4.47
2018-07-31T07:40:54.387Z,5.30
2018-07-31T07:43:22.194Z,4.27
2018-07-31T07:45:49.885Z,4.80
2018-07-31T07:48:17.601Z,4.83
2018-07-31T07:50:45.248Z,4.40
2018-07-31T07:53:13.032Z,4.80
2018-07-31T07:55:41.654Z,6.20
2018-07-31T07:58:09.613Z,5.10
2018-07-31T08:00:37.707Z,5.37
2018-07-31T08:03:05.445Z,4.70
2018-07-31T08:05:33.414Z,4.20
2018-07-31T08:08:02.777Z,4.70
2018-07-31T08:10:31.500Z,5.13
2018-07-31T08:12:59.258Z,4.73
2018-07-31T08:15:27.104Z,4.10
2018-07-31T08:17:54.850Z,4.57
2018-07-31T08:20:22.900Z,5.57
2018-07-31T08:22:50.662Z,4.77
2018-07-31T08:25:18.446Z,4.60
2018-07-31T08:27:47.861Z,5.00
2018-07-31T08:30:15.470Z,4.50
2018-07-31T08:32:43.279Z,4.60
2018-07-31T08:35:11.151Z,5.07
2018-07-31T08:37:40.363Z,5.00
2018-07-31T08:40:08.569Z,4.10
2018-07-31T08:42:36.286Z,5.00
2018-07-31T08:45:04.343Z,4.70
2018-07-31T08:47:32.103Z,4.80
2018-07-31T08:49:59.883Z,5.80
2018-07-31T08:52:27.629Z,4.13
2018-07-31T08:54:57.328Z,4.40
2018-07-31T08:57:25.157Z,4.87
2018-07-31T08:59:52.993Z,3.87
2018-07-31T09:02:20.689Z,4.27
2018-07-31T09:04:49.987Z,4.67
2018-07-31T09:07:17.973Z,5.03
2018-07-31T09:09:45.927Z,4.20
2018-07-31T09:12:13.811Z,4.33
2018-07-31T09:14:43.153Z,4.20
2018-07-31T09:17:11.217Z,4.73
2018-07-31T09:19:40.488Z,3.87
2018-07-31T09:22:08.216Z,4.43
2018-07-31T09:24:35.920Z,4.70
2018-07-31T09:27:03.556Z,4.10
2018-07-31T09:29:31.222Z,4.23
2018-07-31T09:31:59.079Z,3.80
2018-07-31T09:34:27.336Z,4.03
2018-07-31T09:36:55.234Z,3.50
2018-07-31T09:39:23.030Z,4.27
2018-07-31T09:41:50.686Z,3.63
2018-07-31T09:44:18.311Z,3.53
2018-07-31T09:46:46.091Z,4.03
2018-07-31T09:49:13.949Z,3.67
2018-07-31T09:51:41.598Z,4.03
2018-07-31T09:54:09.321Z,3.90
2018-07-31T09:56:37.126Z,4.10
2018-07-31T09:59:04.844Z,4.10
2018-07-31T10:01:32.498Z,3.70
2018-07-31T10:04:00.123Z,3.97
2018-07-31T10:06:27.918Z,3.70
2018-07-31T10:08:55.851Z,3.37
2018-07-31T10:11:23.690Z,3.40
2018-07-31T10:13:51.613Z,4.00
2018-07-31T10:16:19.510Z,4.40
2018-07-31T10:18:47.267Z,4.70
2018-07-31T10:21:15.223Z,4.90
2018-07-31T10:23:43.020Z,3.90
2018-07-31T10:26:10.776Z,4.93
2018-07-31T10:28:38.410Z,4.40
2018-07-31T10:31:14.472Z,4.53
2018-07-31T10:33:43.084Z,4.30
2018-07-31T10:36:11.391Z,4.60
2018-07-31T10:38:39.211Z,3.93
2018-07-31T10:41:07.176Z,4.00
2018-07-31T10:43:34.829Z,4.60
2018-07-31T10:46:03.009Z,4.17
2018-07-31T10:48:31.035Z,4.10
2018-07-31T10:50:58.822Z,3.83
2018-07-31T10:53:26.665Z,4.30
2018-07-31T10:55:54.348Z,4.10
2018-07-31T10:58:22.252Z,3.73
2018-07-31T11:00:50.315Z,3.60
2018-07-31T11:03:18.210Z,4.07
2018-07-31T11:05:46.042Z,5.00
2018-07-31T11:08:14.084Z,3.93
2018-07-31T11:10:41.920Z,4.20
2018-07-31T11:13:09.877Z,3.57
2018-07-31T11:15:37.604Z,4.00
2018-07-31T11:18:05.558Z,3.73
2018-07-31T11:20:33.433Z,4.67
2018-07-31T11:23:01.886Z,4.00
2018-07-31T11:25:29.644Z,4.37
2018-07-31T11:27:57.298Z,4.07
2018-07-31T11:30:25.133Z,4.10
2018-07-31T11:32:59.755Z,4.07
2018-07-31T11:35:27.523Z,4.33
2018-07-31T11:37:55.815Z,4.47
2018-07-31T11:40:23.537Z,4.23
2018-07-31T11:45:25.551Z,3.43
2018-07-31T11:47:53.342Z,3.60
2018-07-31T11:50:21.116Z,4.80
2018-07-31T11:52:48.778Z,4.00
2018-07-31T11:55:16.506Z,3.80
2018-07-31T11:57:44.219Z,4.10
2018-07-31T12:00:12.395Z,4.17
2018-07-31T12:02:40.168Z,4.50
2018-07-31T12:05:08.099Z,3.70
2018-07-31T12:07:35.846Z,3.60
2018-07-31T12:10:04.151Z,3.93
2018-07-31T12:12:32.014Z,3.60
2018-07-31T12:15:00.837Z,4.07
2018-07-31T12:17:28.595Z,3.40
2018-07-31T12:19:56.539Z,3.30
2018-07-31T12:22:24.358Z,3.77
2018-07-31T12:24:52.057Z,3.70
2018-07-31T12:27:20.046Z,3.80
2018-07-31T12:29:48.010Z,3.50
2018-07-31T12:32:16.491Z,4.00
2018-07-31T12:34:45.142Z,4.17
2018-07-31T12:37:13.163Z,3.97
2018-07-31T12:39:41.047Z,3.70
2018-07-31T12:42:09.089Z,3.83
2018-07-31T12:44:37.074Z,3.90
2018-07-31T12:47:04.993Z,3.93
2018-07-31T12:49:32.895Z,3.80
2018-07-31T12:52:02.880Z,3.60
2018-07-31T12:54:31.439Z,3.37
2018-07-31T12:56:59.240Z,4.57
2018-07-31T12:59:27.024Z,4.03
2018-07-31T13:01:54.849Z,3.33
2018-07-31T13:04:22.845Z,3.50
2018-07-31T13:06:50.822Z,3.27
2018-07-31T13:09:18.592Z,3.50
2018-07-31T13:11:46.630Z,3.70
2018-07-31T13:14:15.569Z,4.30
2018-07-31T13:16:43.665Z,3.63
2018-07-31T13:19:11.486Z,4.00
2018-07-31T13:21:39.137Z,3.20
2018-07-31T13:24:06.909Z,3.43
2018-07-31T13:26:35.376Z,3.30
2018-07-31T13:29:03.339Z,2.73
2018-07-31T13:31:31.731Z,4.10
2018-07-31T13:33:59.373Z,4.80
2018-07-31T13:36:27.248Z,3.77
2018-07-31T13:38:54.891Z,3.60
2018-07-31T13:41:22.815Z,3.87
2018-07-31T13:43:50.617Z,3.77
2018-07-31T13:46:18.373Z,3.67
2018-07-31T13:48:49.046Z,3.60
2018-07-31T13:51:17.644Z,3.90
2018-07-31T13:53:45.430Z,3.50
2018-07-31T13:56:13.141Z,3.00
2018-07-31T13:58:40.882Z,3.53
2018-07-31T14:01:08.926Z,3.97
2018-07-31T14:03:36.937Z,3.83
2018-07-31T14:06:05.883Z,3.77
2018-07-31T14:08:33.790Z,3.90
2018-07-31T14:11:02.239Z,3.60
2018-07-31T14:13:30.041Z,3.50
2018-07-31T14:15:57.866Z,3.77
2018-07-31T14:18:26.358Z,4.60
2018-07-31T14:20:53.975Z,4.00
2018-07-31T14:23:21.815Z,3.53
2018-07-31T14:25:49.598Z,3.40
2018-07-31T14:28:18.225Z,3.87
2018-07-31T14:30:46.214Z,3.40
2018-07-31T14:33:13.874Z,4.07
2018-07-31T14:35:41.942Z,3.70
2018-07-31T14:38:10.668Z,3.30
2018-07-31T14:40:38.438Z,3.37
2018-07-31T14:43:06.054Z,3.77
2018-07-31T14:45:34.354Z,3.40
2018-07-31T14:48:02.033Z,3.50
2018-07-31T14:50:30.052Z,3.90
2018-07-31T14:52:57.894Z,3.80
2018-07-31T14:55:25.800Z,3.40
2018-07-31T14:57:53.854Z,3.70
2018-07-31T15:00:21.667Z,3.23
2018-07-31T15:02:49.342Z,3.10
2018-07-31T15:05:17.322Z,3.80
2018-07-31T15:07:45.086Z,3.67
2018-07-31T15:10:12.753Z,3.70
2018-07-31T15:12:40.406Z,3.40
2018-07-31T15:15:08.117Z,3.53
2018-07-31T15:17:35.802Z,3.80
2018-07-31T15:20:03.744Z,3.70
2018-07-31T15:22:31.358Z,3.90
2018-07-31T15:24:59.207Z,4.40
2018-07-31T15:27:26.991Z,4.10
2018-07-31T15:29:55.084Z,3.40
2018-07-31T15:32:22.902Z,3.17
2018-07-31T15:34:50.822Z,3.70
2018-07-31T15:37:22.084Z,3.80
2018-07-31T15:39:49.953Z,4.03
2018-07-31T15:42:17.819Z,4.10
2018-07-31T15:44:45.801Z,4.13
2018-07-31T15:47:13.669Z,4.00
2018-07-31T15:49:42.904Z,4.50
2018-07-31T15:52:10.854Z,4.17
2018-07-31T15:54:38.844Z,4.47
2018-07-31T15:57:06.762Z,3.93
2018-07-31T15:59:34.692Z,4.37
2018-07-31T16:02:02.336Z,4.30
2018-07-31T16:04:30.418Z,3.90
2018-07-31T16:06:58.316Z,4.13
2018-07-31T16:09:26.313Z,4.03
2018-07-31T16:11:54.271Z,4.50
2018-07-31T16:14:22.019Z,4.80
2018-07-31T16:16:49.800Z,4.30
2018-07-31T16:19:21.475Z,4.67
2018-07-31T16:21:49.254Z,4.70
2018-07-31T16:24:17.105Z,4.63
2018-07-31T16:26:45.755Z,6.10
2018-07-31T16:29:14.472Z,4.03
2018-07-31T16:31:42.271Z,4.47
2018-07-31T16:34:10.322Z,5.00
2018-07-31T16:36:37.987Z,5.20
2018-07-31T16:39:06.442Z,4.57
2018-07-31T16:41:34.115Z,5.33
2018-07-31T16:44:02.113Z,5.23
2018-07-31T16:46:33.276Z,4.50
2018-07-31T16:49:01.217Z,5.83
2018-07-31T16:51:29.306Z,6.70
2018-07-31T16:53:57.259Z,7.27
2018-07-31T16:56:25.033Z,6.17
2018-07-31T16:58:52.836Z,6.67
2018-07-31T17:01:20.516Z,6.80
2018-07-31T17:03:48.339Z,7.00
2018-07-31T17:06:16.358Z,6.20
2018-07-31T17:08:44.739Z,6.83
2018-07-31T17:11:13.088Z,6.00
2018-07-31T17:13:41.086Z,6.10
2018-07-31T17:16:09.074Z,5.80
2018-07-31T17:18:37.134Z,6.40
2018-07-31T17:21:06.147Z,5.73
2018-07-31T17:23:33.856Z,6.27
2018-07-31T17:26:01.896Z,7.30
2018-07-31T17:28:30.096Z,6.63
2018-07-31T17:30:58.136Z,5.97
2018-07-31T17:33:25.843Z,6.30
2018-07-31T17:35:53.915Z,6.53
2018-07-31T17:38:21.729Z,6.70
2018-07-31T17:40:49.481Z,6.40
2018-07-31T17:43:17.264Z,6.10
2018-07-31T17:45:46.155Z,6.57
2018-07-31T17:48:13.855Z,6.23
2018-07-31T17:50:42.331Z,7.97
2018-07-31T17:53:10.442Z,6.90
2018-07-31T17:55:38.813Z,7.13
2018-07-31T17:58:06.465Z,6.50
2018-07-31T18:00:34.269Z,5.27
2018-07-31T18:03:01.929Z,5.80
2018-07-31T18:05:31.525Z,6.13
2018-07-31T18:07:59.297Z,5.30
2018-07-31T18:10:27.106Z,6.37
2018-07-31T18:12:54.794Z,5.50
2018-07-31T18:15:22.457Z,5.90
2018-07-31T18:17:50.102Z,6.57
2018-07-31T18:20:18.337Z,6.83
2018-07-31T18:22:46.174Z,5.73
2018-07-31T18:25:13.843Z,6.30
2018-07-31T18:27:41.564Z,7.03
2018-07-31T18:30:09.355Z,7.30
2018-07-31T18:32:46.406Z,6.50
2018-07-31T18:35:15.603Z,6.80
2018-07-31T18:37:43.396Z,6.27
2018-07-31T18:40:11.027Z,6.27
2018-07-31T18:42:38.613Z,5.37
2018-07-31T18:47:33.633Z,4.93
2018-07-31T18:50:01.429Z,5.23
2018-07-31T18:52:29.151Z,5.97
2018-07-31T18:54:56.959Z,5.93
2018-07-31T18:57:26.335Z,5.93
2018-07-31T18:59:54.537Z,6.00
2018-07-31T19:02:22.334Z,5.83
2018-07-31T19:04:51.242Z,6.20
2018-07-31T19:07:19.853Z,6.43
2018-07-31T19:09:48.820Z,6.37
2018-07-31T19:12:16.921Z,6.57
2018-07-31T19:14:45.465Z,6.20
2018-07-31T19:17:22.774Z,6.47
2018-07-31T19:19:50.710Z,6.97
2018-07-31T19:22:24.234Z,7.27
2018-07-31T19:24:54.445Z,6.70
2018-07-31T19:27:22.565Z,6.80
2018-07-31T19:29:50.511Z,6.80
2018-07-31T19:32:19.220Z,6.13
2018-07-31T19:34:47.558Z,7.23
2018-07-31T19:37:15.555Z,5.87
2018-07-31T19:39:43.231Z,6.50
2018-07-31T19:42:11.150Z,6.27
2018-07-31T19:44:38.821Z,6.10
2018-07-31T19:47:06.788Z,6.83
2018-07-31T19:49:34.484Z,6.30
2018-07-31T19:52:02.840Z,7.17
2018-07-31T19:54:32.141Z,8.17
2018-07-31T19:57:01.208Z,7.50
2018-07-31T19:59:28.930Z,8.70
2018-07-31T20:01:56.808Z,7.10
2018-07-31T20:04:27.181Z,8.10
2018-07-31T20:06:55.713Z,7.27
2018-07-31T20:09:27.134Z,7.57
2018-07-31T20:11:56.619Z,7.60
2018-07-31T20:14:25.176Z,6.70
2018-07-31T20:16:53.902Z,8.03
2018-07-31T20:19:22.650Z,7.40
2018-07-31T20:21:50.977Z,8.60
2018-07-31T20:24:18.876Z,9.10
2018-07-31T20:26:47.164Z,8.47
2018-07-31T20:29:16.881Z,8.50
2018-07-31T20:31:47.831Z,7.87
2018-07-31T20:34:17.050Z,7.17
2018-07-31T20:36:45.035Z,6.70
2018-07-31T20:39:12.917Z,6.50
2018-07-31T20:41:40.845Z,6.80
2018-07-31T20:44:09.690Z,6.33
2018-07-31T20:46:37.588Z,6.70
2018-07-31T20:49:05.285Z,7.50
2018-07-31T20:51:33.080Z,7.50
2018-07-31T20:54:01.345Z,7.53
2018-07-31T20:56:29.163Z,7.20
2018-07-31T20:58:57.178Z,6.90
2018-07-31T21:01:25.453Z,7.43
2018-07-31T21:03:54.771Z,6.60
2018-07-31T21:06:23.118Z,6.50
2018-07-31T21:08:51.030Z,6.50
2018-07-31T21:11:18.901Z,6.50
2018-07-31T21:13:47.527Z,5.93
2018-07-31T21:16:15.961Z,7.10
2018-07-31T21:18:43.820Z,6.90
2018-07-31T21:21:11.641Z,7.13
2018-07-31T21:23:41.734Z,7.20
2018-07-31T21:26:09.414Z,7.10
2018-07-31T21:28:37.659Z,6.70
2018-07-31T21:31:06.915Z,7.00
2018-07-31T21:33:36.658Z,7.23
2018-07-31T21:36:05.034Z,8.30
2018-07-31T21:38:34.392Z,6.40
2018-07-31T21:41:02.204Z,7.87
2018-07-31T21:43:32.203Z,7.83
2018-07-31T21:46:00.017Z,7.80
2018-07-31T21:48:27.955Z,7.87
2018-07-31T21:50:55.794Z,9.00
2018-07-31T21:53:23.674Z,8.23
2018-07-31T21:55:51.546Z,8.63
2018-07-31T21:58:19.969Z,8.47
2018-07-31T22:00:53.939Z,8.17
2018-07-31T22:03:22.476Z,8.70
2018-07-31T22:05:52.127Z,8.20
2018-07-31T22:08:19.973Z,8.60
2018-07-31T22:10:48.627Z,7.47
2018-07-31T22:13:16.585Z,7.90
2018-07-31T22:15:44.238Z,6.57
2018-07-31T22:18:12.565Z,6.83
2018-07-31T22:20:40.452Z,6.20
2018-07-31T22:23:08.344Z,5.80
2018-07-31T22:25:36.411Z,6.70
2018-07-31T22:28:04.040Z,5.63
2018-07-31T22:30:33.331Z,6.90
2018-07-31T22:33:01.556Z,6.00
2018-07-31T22:35:29.426Z,5.40
2018-07-31T22:37:57.860Z,5.60
2018-07-31T22:40:26.710Z,4.83
2018-07-31T22:42:54.654Z,5.53
2018-07-31T22:45:22.354Z,5.10
2018-07-31T22:47:50.183Z,6.00
2018-07-31T22:50:18.049Z,5.70
2018-07-31T22:52:45.862Z,5.20
2018-07-31T22:55:13.718Z,4.40
2018-07-31T22:57:41.413Z,5.20
2018-07-31T23:00:09.202Z,4.60
2018-07-31T23:02:39.438Z,5.03
2018-07-31T23:05:07.908Z,4.77
2018-07-31T23:07:35.988Z,4.27
2018-07-31T23:10:04.487Z,5.60
2018-07-31T23:12:32.828Z,4.40
2018-07-31T23:15:01.576Z,4.77
2018-07-31T23:17:29.809Z,3.97
2018-07-31T23:20:02.125Z,4.90
2018-07-31T23:22:38.846Z,4.47
2018-07-31T23:25:11.826Z,4.37
2018-07-31T23:27:40.403Z,4.70
2018-07-31T23:30:11.998Z,4.17
2018-07-31T23:32:40.786Z,4.63
2018-07-31T23:35:09.645Z,5.27
2018-07-31T23:37:37.274Z,3.80
2018-07-31T23:40:06.701Z,4.43
2018-07-31T23:42:34.459Z,4.00
2018-07-31T23:45:02.845Z,4.10
2018-07-31T23:47:31.244Z,3.90
2018-07-31T23:50:00.780Z,3.80
2018-07-31T23:52:28.935Z,4.97
2018-07-31T23:54:57.041Z,4.53
2018-07-31T23:57:26.176Z,4.07
2018-07-31T23:59:53.818Z,3.50
